Time;durP1;ratioP1;P1;durP2;ratioP2;P2;SDS_P1;SDS_P2;PMS_P1;PMS_P2;Temp;Humidity;BMP_temperature;BMP_pressure;BME280_temperature;BME280_humidity;BME280_pressure;Samples;Min_cycle;Max_cycle;Signal;HPM_P1;HPM_P2
2023/07/31 00:00:22;;;;;;;8.20;2.20;;;;;;;;;;7372936;19;20021;-72
2023/07/31 00:02:47;;;;;;;7.28;2.00;;;;;;;;;;7371824;19;20475;-72
2023/07/31 00:05:13;;;;;;;5.35;2.30;;;;;;;;;;7367746;19;20472;-72
2023/07/31 00:07:38;;;;;;;5.68;2.22;;;;;;;;;;7391410;19;20097;-72
2023/07/31 00:10:03;;;;;;;6.95;2.20;;;;;;;;;;7368063;19;20058;-72
2023/07/31 00:12:29;;;;;;;5.03;2.10;;;;;;;;;;7369693;19;20007;-72
2023/07/31 00:14:54;;;;;;;4.15;2.00;;;;;;;;;;7366044;19;20065;-72
2023/07/31 00:17:20;;;;;;;4.90;1.90;;;;;;;;;;7369389;19;20060;-72
2023/07/31 00:19:46;;;;;;;4.88;1.90;;;;;;;;;;7392976;19;20002;-72
2023/07/31 00:22:11;;;;;;;9.25;2.47;;;;;;;;;;7372392;19;20047;-72
2023/07/31 00:24:37;;;;;;;6.53;2.10;;;;;;;;;;7369573;19;20010;-72
2023/07/31 00:27:02;;;;;;;4.80;2.00;;;;;;;;;;7371459;19;20014;-72
2023/07/31 00:29:28;;;;;;;7.32;1.90;;;;;;;;;;7376559;19;20511;-72
2023/07/31 00:31:53;;;;;;;6.75;2.10;;;;;;;;;;7403418;19;20022;-72
2023/07/31 00:34:18;;;;;;;6.57;2.10;;;;;;;;;;7378525;19;20300;-72
2023/07/31 00:36:43;;;;;;;5.38;1.95;;;;;;;;;;7382114;19;20035;-71
2023/07/31 00:39:09;;;;;;;6.53;1.88;;;;;;;;;;7379915;19;20053;-71
2023/07/31 00:41:34;;;;;;;5.93;2.00;;;;;;;;;;7377516;19;19998;-72
2023/07/31 00:43:59;;;;;;;4.30;1.85;;;;;;;;;;7379104;19;20376;-72
2023/07/31 00:46:25;;;;;;;7.40;1.83;;;;;;;;;;7390838;19;20010;-73
2023/07/31 00:48:50;;;;;;;5.30;2.05;;;;;;;;;;7374422;19;20011;-72
2023/07/31 00:51:16;;;;;;;6.10;2.10;;;;;;;;;;7373616;19;20002;-72
2023/07/31 00:53:42;;;;;;;8.48;2.28;;;;;;;;;;7371550;19;20377;-71
2023/07/31 00:56:08;;;;;;;4.32;2.03;;;;;;;;;;7372435;19;20002;-71
2023/07/31 00:58:33;;;;;;;7.85;2.65;;;;;;;;;;7395745;19;20016;-71
2023/07/31 01:00:58;;;;;;;8.68;2.28;;;;;;;;;;7375119;19;20027;-71
2023/07/31 01:03:24;;;;;;;5.30;2.00;;;;;;;;;;7377695;19;20018;-72
2023/07/31 01:06:00;;;;;;;4.93;2.20;;;;;;;;;;7378952;19;20006;-72
2023/07/31 01:08:37;;;;;;;4.13;2.00;;;;;;;;;;7380796;19;20003;-73
2023/07/31 01:11:15;;;;;;;6.45;2.00;;;;;;;;;;7383871;19;20070;-72
2023/07/31 01:13:42;;;;;;;8.00;2.35;;;;;;;;;;7406087;19;20578;-72
2023/07/31 01:16:07;;;;;;;5.47;2.10;;;;;;;;;;7375980;19;20007;-72
2023/07/31 01:18:32;;;;;;;7.13;2.20;;;;;;;;;;7373222;19;20031;-72
2023/07/31 01:21:13;;;;;;;3.80;2.10;;;;;;;;;;7370827;19;20006;-72
2023/07/31 01:24:03;;;;;;;7.20;2.40;;;;;;;;;;7371601;19;20022;-72
2023/07/31 01:26:34;;;;;;;4.32;1.98;;;;;;;;;;7371462;19;20037;-72
2023/07/31 01:29:05;;;;;;;8.27;2.45;;;;;;;;;;7382492;19;20369;-72
2023/07/31 01:31:32;;;;;;;5.93;2.42;;;;;;;;;;7398421;19;20002;-73
2023/07/31 01:34:01;;;;;;;6.50;2.05;;;;;;;;;;7377175;19;20002;-73
2023/07/31 01:36:27;;;;;;;7.90;2.40;;;;;;;;;;7379287;19;19998;-73
2023/07/31 01:38:52;;;;;;;5.93;2.10;;;;;;;;;;7378826;19;20019;-73
2023/07/31 01:41:18;;;;;;;6.53;2.15;;;;;;;;;;7379088;19;20003;-73
2023/07/31 01:43:45;;;;;;;5.55;2.13;;;;;;;;;;7398492;19;20046;-73
2023/07/31 01:46:11;;;;;;;9.50;2.50;;;;;;;;;;7377918;19;20035;-72
2023/07/31 01:48:36;;;;;;;9.20;2.30;;;;;;;;;;7380524;19;20010;-72
2023/07/31 01:51:02;;;;;;;7.22;2.17;;;;;;;;;;7376803;19;20051;-72
2023/07/31 01:53:29;;;;;;;5.22;1.95;;;;;;;;;;7376813;19;19999;-73
2023/07/31 01:55:54;;;;;;;10.93;2.28;;;;;;;;;;7398451;19;19999;-72
2023/07/31 01:58:19;;;;;;;6.38;2.25;;;;;;;;;;7375833;19;20670;-72
2023/07/31 02:00:46;;;;;;;4.70;2.33;;;;;;;;;;7375865;19;20027;-72
2023/07/31 02:03:11;;;;;;;5.72;2.00;;;;;;;;;;7377131;19;20018;-72
2023/07/31 02:05:43;;;;;;;7.30;2.42;;;;;;;;;;7378252;19;20007;-73
2023/07/31 02:08:08;;;;;;;7.18;2.50;;;;;;;;;;7377210;19;20006;-73
2023/07/31 02:10:33;;;;;;;8.73;2.50;;;;;;;;;;7400927;19;20030;-72
2023/07/31 02:12:59;;;;;;;6.43;2.08;;;;;;;;;;7379565;19;20054;-72
2023/07/31 02:15:24;;;;;;;7.38;2.53;;;;;;;;;;7375453;19;20021;-72
2023/07/31 02:17:49;;;;;;;8.82;2.42;;;;;;;;;;7380681;19;20082;-73
2023/07/31 02:20:15;;;;;;;8.35;2.25;;;;;;;;;;7374991;19;20014;-73
2023/07/31 02:22:41;;;;;;;9.93;2.70;;;;;;;;;;7397200;19;20011;-73
2023/07/31 02:25:06;;;;;;;5.78;2.20;;;;;;;;;;7372349;19;20010;-72
2023/07/31 02:27:32;;;;;;;7.93;2.13;;;;;;;;;;7376297;19;20133;-72
2023/07/31 02:29:59;;;;;;;9.68;3.08;;;;;;;;;;7375492;19;20368;-72
2023/07/31 02:32:24;;;;;;;8.15;2.40;;;;;;;;;;7373137;19;20007;-73
2023/07/31 02:34:49;;;;;;;5.80;2.17;;;;;;;;;;7396049;19;20510;-73
2023/07/31 02:37:15;;;;;;;10.20;2.58;;;;;;;;;;7374790;19;20015;-72
2023/07/31 02:39:40;;;;;;;8.07;3.10;;;;;;;;;;7378070;19;20010;-73
2023/07/31 02:42:06;;;;;;;4.90;2.45;;;;;;;;;;7376234;19;20567;-72
2023/07/31 02:44:31;;;;;;;7.72;3.20;;;;;;;;;;7376176;19;20026;-72
2023/07/31 02:46:57;;;;;;;8.50;2.70;;;;;;;;;;7397190;19;20473;-72
2023/07/31 02:49:22;;;;;;;6.22;2.60;;;;;;;;;;7373371;19;20010;-72
2023/07/31 02:51:47;;;;;;;5.28;2.35;;;;;;;;;;7372680;19;20033;-72
2023/07/31 02:54:13;;;;;;;10.13;2.58;;;;;;;;;;7373584;19;20006;-72
2023/07/31 02:56:38;;;;;;;9.23;2.50;;;;;;;;;;7376838;19;20006;-72
2023/07/31 02:59:03;;;;;;;6.15;2.50;;;;;;;;;;7376269;19;20066;-72
2023/07/31 03:01:28;;;;;;;4.85;2.20;;;;;;;;;;7397646;19;20054;-72
2023/07/31 03:03:54;;;;;;;7.68;2.08;;;;;;;;;;7374299;19;20006;-72
2023/07/31 03:06:19;;;;;;;9.25;2.60;;;;;;;;;;7375707;19;20011;-72
2023/07/31 03:08:45;;;;;;;5.43;2.38;;;;;;;;;;7375148;19;20370;-72
2023/07/31 03:11:10;;;;;;;7.30;2.50;;;;;;;;;;7372593;19;20007;-72
2023/07/31 03:13:35;;;;;;;6.55;2.40;;;;;;;;;;7392383;19;19999;-73
2023/07/31 03:16:00;;;;;;;5.90;2.42;;;;;;;;;;7370511;19;20500;-72
2023/07/31 03:18:26;;;;;;;5.40;2.55;;;;;;;;;;7368944;19;20033;-73
2023/07/31 03:20:51;;;;;;;7.82;2.70;;;;;;;;;;7370899;19;20023;-72
2023/07/31 03:23:16;;;;;;;10.02;2.58;;;;;;;;;;7367887;19;20007;-72
2023/07/31 03:25:57;;;;;;;11.20;2.85;;;;;;;;;;7388733;19;20003;-72
2023/07/31 03:28:23;;;;;;;;;;;;;;;;;;7367776;19;20045;-72
2023/07/31 03:30:48;;;;;;;5.43;2.15;;;;;;;;;;7366633;19;20336;-73
2023/07/31 03:33:13;;;;;;;6.28;2.05;;;;;;;;;;7366389;19;19999;-73
2023/07/31 03:35:39;;;;;;;9.50;2.50;;;;;;;;;;7364382;19;20030;-73
2023/07/31 03:38:04;;;;;;;6.55;2.65;;;;;;;;;;7364907;19;20013;-73
2023/07/31 03:40:29;;;;;;;8.23;2.67;;;;;;;;;;7387752;19;20007;-73
2023/07/31 03:42:54;;;;;;;8.77;2.50;;;;;;;;;;7371883;19;20116;-73
2023/07/31 03:45:20;;;;;;;7.60;2.85;;;;;;;;;;7379887;19;20006;-73
2023/07/31 03:47:45;;;;;;;8.45;3.20;;;;;;;;;;7380663;19;20027;-73
2023/07/31 03:50:10;;;;;;;7.03;2.42;;;;;;;;;;7379472;19;20009;-73
2023/07/31 03:52:36;;;;;;;8.45;2.33;;;;;;;;;;7399392;19;20035;-72
2023/07/31 03:55:01;;;;;;;6.78;2.53;;;;;;;;;;7374025;19;20013;-72
2023/07/31 03:57:27;;;;;;;8.52;2.80;;;;;;;;;;7373927;19;20009;-72
2023/07/31 03:59:52;;;;;;;8.15;2.55;;;;;;;;;;7373456;19;20014;-72
2023/07/31 04:02:18;;;;;;;8.02;2.60;;;;;;;;;;7368548;19;20031;-72
2023/07/31 04:04:43;;;;;;;7.18;2.60;;;;;;;;;;7392379;19;20919;-72
2023/07/31 04:07:09;;;;;;;9.35;2.78;;;;;;;;;;7370091;19;20019;-72
2023/07/31 04:09:34;;;;;;;8.60;3.08;;;;;;;;;;7368332;19;20007;-72
2023/07/31 04:11:59;;;;;;;8.05;2.80;;;;;;;;;;7365884;19;20018;-72
2023/07/31 04:14:25;;;;;;;6.47;2.58;;;;;;;;;;7367513;19;20018;-71
2023/07/31 04:16:50;;;;;;;7.32;2.78;;;;;;;;;;7393546;19;20073;-72
2023/07/31 04:19:16;;;;;;;8.48;3.33;;;;;;;;;;7372206;19;20828;-72
2023/07/31 04:21:42;;;;;;;7.30;2.88;;;;;;;;;;7371723;19;20009;-71
2023/07/31 04:24:07;;;;;;;10.48;2.70;;;;;;;;;;7369735;19;20454;-72
2023/07/31 04:26:32;;;;;;;6.80;2.55;;;;;;;;;;7371734;19;20010;-72
2023/07/31 04:28:58;;;;;;;7.45;2.70;;;;;;;;;;7389934;19;19994;-71
2023/07/31 04:31:23;;;;;;;1999.90;999.90;;;;;;;;;;7370022;19;20009;-72
2023/07/31 04:33:48;;;;;;;9.75;2.92;;;;;;;;;;7368275;19;20014;-72
2023/07/31 04:36:14;;;;;;;6.80;2.85;;;;;;;;;;7370188;19;20027;-73
2023/07/31 04:38:40;;;;;;;7.90;2.95;;;;;;;;;;7371391;19;20010;-71
2023/07/31 04:41:06;;;;;;;7.13;3.40;;;;;;;;;;7371018;19;20034;-72
2023/07/31 04:43:31;;;;;;;6.68;2.75;;;;;;;;;;7393588;19;20082;-73
2023/07/31 04:45:57;;;;;;;7.07;2.97;;;;;;;;;;7372490;19;20503;-73
2023/07/31 04:48:23;;;;;;;7.55;2.70;;;;;;;;;;7371810;19;20087;-72
2023/07/31 04:50:48;;;;;;;8.48;3.00;;;;;;;;;;7371212;19;20013;-72
2023/07/31 04:53:14;;;;;;;8.15;2.67;;;;;;;;;;7370414;19;20366;-72
2023/07/31 04:55:39;;;;;;;5.95;2.55;;;;;;;;;;7376506;19;20012;-72
2023/07/31 04:58:05;;;;;;;7.47;2.65;;;;;;;;;;7362156;19;20006;-72
2023/07/31 05:00:30;;;;;;;7.28;2.50;;;;;;;;;;7369842;19;20267;-72
2023/07/31 05:02:55;;;;;;;8.35;2.58;;;;;;;;;;7368741;19;20492;-71
2023/07/31 05:05:21;;;;;;;7.10;2.80;;;;;;;;;;7368873;19;20345;-71
2023/07/31 05:07:46;;;;;;;7.88;2.80;;;;;;;;;;7392848;19;20017;-71
2023/07/31 05:10:11;;;;;;;7.07;2.85;;;;;;;;;;7370936;19;20033;-70
2023/07/31 05:12:37;;;;;;;7.25;2.90;;;;;;;;;;7370835;19;20429;-71
2023/07/31 05:15:03;;;;;;;11.07;3.17;;;;;;;;;;7366445;19;20053;-71
2023/07/31 05:17:28;;;;;;;7.63;3.10;;;;;;;;;;7367997;19;20006;-71
2023/07/31 05:19:53;;;;;;;6.90;2.83;;;;;;;;;;7389481;19;20330;-71
2023/07/31 05:22:19;;;;;;;8.75;3.10;;;;;;;;;;7356935;19;20021;-71
2023/07/31 05:24:44;;;;;;;10.18;3.42;;;;;;;;;;7367885;19;20006;-70
2023/07/31 05:27:10;;;;;;;8.40;2.70;;;;;;;;;;7368880;19;20006;-71
2023/07/31 05:29:35;;;;;;;9.35;2.80;;;;;;;;;;7367726;19;20042;-71
2023/07/31 05:32:01;;;;;;;6.07;2.65;;;;;;;;;;7367642;19;20002;-71
2023/07/31 05:34:26;;;;;;;8.05;2.72;;;;;;;;;;7388835;19;20018;-71
2023/07/31 05:36:52;;;;;;;8.93;3.03;;;;;;;;;;7368506;19;20074;-71
2023/07/31 05:39:19;;;;;;;6.53;2.72;;;;;;;;;;7368051;19;20101;-71
2023/07/31 05:41:45;;;;;;;8.65;2.83;;;;;;;;;;7368712;19;20039;-72
2023/07/31 05:44:10;;;;;;;6.90;2.92;;;;;;;;;;7368250;19;20015;-73
2023/07/31 05:46:35;;;;;;;6.93;2.83;;;;;;;;;;7390296;19;20582;-73
2023/07/31 05:49:01;;;;;;;9.93;2.80;;;;;;;;;;7368801;19;20007;-73
2023/07/31 05:51:27;;;;;;;6.47;2.65;;;;;;;;;;7370045;19;20150;-73
2023/07/31 05:53:52;;;;;;;9.27;2.67;;;;;;;;;;7369723;19;20006;-74
2023/07/31 05:56:18;;;;;;;10.23;2.80;;;;;;;;;;7370290;19;20051;-72
2023/07/31 05:58:43;;;;;;;8.80;3.10;;;;;;;;;;7392174;19;20035;-72
2023/07/31 06:01:08;;;;;;;7.72;2.90;;;;;;;;;;7370158;19;20029;-72
2023/07/31 06:03:34;;;;;;;8.27;2.78;;;;;;;;;;7375197;19;20018;-72
2023/07/31 06:05:59;;;;;;;6.90;2.75;;;;;;;;;;7376230;19;20460;-72
2023/07/31 06:08:25;;;;;;;7.60;2.58;;;;;;;;;;7381001;19;20086;-72
2023/07/31 06:10:50;;;;;;;8.48;2.53;;;;;;;;;;7396747;19;20006;-72
2023/07/31 06:13:15;;;;;;;9.30;2.97;;;;;;;;;;7370189;19;20032;-72
2023/07/31 06:15:41;;;;;;;8.07;2.78;;;;;;;;;;7370968;19;20042;-72
2023/07/31 06:18:07;;;;;;;7.07;2.90;;;;;;;;;;7369453;19;20136;-72
2023/07/31 06:20:34;;;;;;;10.15;2.80;;;;;;;;;;7369256;19;20082;-72
2023/07/31 06:22:59;;;;;;;6.25;2.60;;;;;;;;;;7385351;19;20015;-73
2023/07/31 06:25:25;;;;;;;7.28;2.53;;;;;;;;;;7378405;19;20031;-72
2023/07/31 06:27:50;;;;;;;7.78;2.55;;;;;;;;;;7370230;19;20006;-72
2023/07/31 06:30:15;;;;;;;5.78;2.67;;;;;;;;;;7369657;19;20010;-72
2023/07/31 06:32:41;;;;;;;6.03;2.65;;;;;;;;;;7368887;19;20654;-72
2023/07/31 06:35:06;;;;;;;5.15;2.47;;;;;;;;;;7365624;19;20338;-72
2023/07/31 06:37:32;;;;;;;7.22;2.65;;;;;;;;;;7388712;19;20353;-72
2023/07/31 06:39:57;;;;;;;6.43;2.58;;;;;;;;;;7368006;19;20035;-72
2023/07/31 06:42:23;;;;;;;6.40;2.60;;;;;;;;;;7368169;19;20590;-72
2023/07/31 06:44:48;;;;;;;7.05;2.70;;;;;;;;;;7366946;19;20064;-72
2023/07/31 06:47:13;;;;;;;6.55;2.80;;;;;;;;;;7367802;19;20074;-72
2023/07/31 06:49:39;;;;;;;5.93;2.55;;;;;;;;;;7389966;19;20357;-72
2023/07/31 06:52:04;;;;;;;8.80;2.58;;;;;;;;;;7368575;19;20496;-73
2023/07/31 06:54:29;;;;;;;6.65;2.65;;;;;;;;;;7366432;19;20007;-73
2023/07/31 06:56:55;;;;;;;6.40;2.45;;;;;;;;;;7367649;19;21050;-72
2023/07/31 06:59:20;;;;;;;7.90;2.25;;;;;;;;;;7370726;19;20101;-73
2023/07/31 07:01:45;;;;;;;6.85;2.60;;;;;;;;;;7390617;19;19999;-72
2023/07/31 07:04:11;;;;;;;6.93;2.60;;;;;;;;;;7369269;19;20010;-70
2023/07/31 07:06:36;;;;;;;6.40;2.60;;;;;;;;;;7366135;19;20011;-72
2023/07/31 07:09:01;;;;;;;5.53;2.30;;;;;;;;;;7370799;19;20007;-72
2023/07/31 07:11:27;;;;;;;7.68;2.83;;;;;;;;;;7367156;19;20076;-72
2023/07/31 07:13:52;;;;;;;6.63;2.60;;;;;;;;;;7388834;19;20412;-71
2023/07/31 07:16:19;;;;;;;9.02;2.88;;;;;;;;;;7366744;19;20022;-71
2023/07/31 07:18:44;;;;;;;7.80;2.40;;;;;;;;;;7373498;19;20010;-72
2023/07/31 07:21:14;;;;;;;9.13;2.90;;;;;;;;;;7373972;19;20025;-73
2023/07/31 07:23:39;;;;;;;7.28;2.85;;;;;;;;;;7373249;19;20432;-71
2023/07/31 07:26:05;;;;;;;8.32;3.20;;;;;;;;;;7374706;19;20006;-71
2023/07/31 07:28:30;;;;;;;8.23;2.83;;;;;;;;;;7396227;19;20014;-71
2023/07/31 07:30:55;;;;;;;7.60;2.80;;;;;;;;;;7373962;19;20002;-71
2023/07/31 07:33:20;;;;;;;8.07;2.85;;;;;;;;;;7372074;19;20006;-72
2023/07/31 07:35:46;;;;;;;9.52;3.13;;;;;;;;;;7371361;19;20078;-73
2023/07/31 07:38:11;;;;;;;6.97;2.65;;;;;;;;;;7371011;19;20023;-72
2023/07/31 07:40:40;;;;;;;7.13;2.38;;;;;;;;;;7396175;19;20003;-71
2023/07/31 07:43:06;;;;;;;6.00;2.40;;;;;;;;;;7373145;19;20011;-72
2023/07/31 07:45:31;;;;;;;10.25;3.10;;;;;;;;;;7373857;19;20362;-72
2023/07/31 07:47:56;;;;;;;7.97;3.03;;;;;;;;;;7374273;19;20006;-73
2023/07/31 07:50:22;;;;;;;10.23;2.85;;;;;;;;;;7372594;19;20014;-73
2023/07/31 07:52:47;;;;;;;7.45;2.50;;;;;;;;;;7394547;19;20006;-72
2023/07/31 07:55:12;;;;;;;9.40;2.67;;;;;;;;;;7369864;19;20082;-72
2023/07/31 07:57:38;;;;;;;9.10;2.80;;;;;;;;;;7371437;19;20580;-73
2023/07/31 08:00:04;;;;;;;7.57;2.78;;;;;;;;;;7374421;19;20014;-72
2023/07/31 08:02:30;;;;;;;8.18;2.60;;;;;;;;;;7373120;19;20011;-70
2023/07/31 08:04:55;;;;;;;7.80;2.70;;;;;;;;;;7391960;19;20014;-72
2023/07/31 08:07:20;;;;;;;10.18;2.75;;;;;;;;;;7373795;19;20013;-72
2023/07/31 08:09:46;;;;;;;8.43;2.60;;;;;;;;;;7372405;19;20010;-72
2023/07/31 08:12:11;;;;;;;9.00;2.60;;;;;;;;;;7373712;19;20010;-72
2023/07/31 08:14:36;;;;;;;11.65;2.80;;;;;;;;;;7370586;19;20018;-71
2023/07/31 08:17:02;;;;;;;6.15;2.33;;;;;;;;;;7372617;19;20103;-72
2023/07/31 08:19:27;;;;;;;9.27;2.33;;;;;;;;;;7393440;19;20007;-71
2023/07/31 08:21:52;;;;;;;6.90;2.45;;;;;;;;;;7370969;19;20017;-72
2023/07/31 08:24:18;;;;;;;8.07;2.58;;;;;;;;;;7369917;19;20002;-73
2023/07/31 08:26:43;;;;;;;8.52;2.90;;;;;;;;;;7372089;19;20011;-71
2023/07/31 08:29:09;;;;;;;11.25;2.80;;;;;;;;;;7368899;19;20021;-71
2023/07/31 08:31:34;;;;;;;7.15;2.92;;;;;;;;;;7393031;19;20003;-71
2023/07/31 08:34:00;;;;;;;6.35;2.50;;;;;;;;;;7369418;19;20006;-72
2023/07/31 08:36:25;;;;;;;8.55;3.00;;;;;;;;;;7372692;19;20040;-73
2023/07/31 08:38:51;;;;;;;6.50;2.53;;;;;;;;;;7373279;19;20002;-73
2023/07/31 08:41:19;;;;;;;5.80;2.45;;;;;;;;;;7379210;19;20010;-72
2023/07/31 08:43:46;;;;;;;8.60;2.85;;;;;;;;;;7393732;19;20010;-72
2023/07/31 08:46:11;;;;;;;6.40;2.45;;;;;;;;;;7372071;19;20010;-72
2023/07/31 08:48:38;;;;;;;8.05;2.47;;;;;;;;;;7372360;19;20070;-72
2023/07/31 08:51:03;;;;;;;6.80;2.40;;;;;;;;;;7373992;19;20102;-71
2023/07/31 08:53:29;;;;;;;7.13;2.85;;;;;;;;;;7371602;19;20010;-72
2023/07/31 08:55:56;;;;;;;8.70;2.75;;;;;;;;;;7394219;19;20043;-72
2023/07/31 08:58:23;;;;;;;5.57;2.70;;;;;;;;;;7370808;19;20051;-72
2023/07/31 09:00:50;;;;;;;9.27;3.00;;;;;;;;;;7371865;19;20418;-72
2023/07/31 09:03:18;;;;;;;6.90;2.45;;;;;;;;;;7371701;19;20013;-72
2023/07/31 09:05:45;;;;;;;7.03;2.30;;;;;;;;;;7372513;19;20765;-72
2023/07/31 09:08:12;;;;;;;7.65;2.70;;;;;;;;;;7372003;19;20022;-71
2023/07/31 09:10:49;;;;;;;6.32;2.80;;;;;;;;;;7393137;19;20459;-71
2023/07/31 09:13:15;;;;;;;7.78;2.63;;;;;;;;;;7369910;19;20014;-71
2023/07/31 09:15:43;;;;;;;11.95;3.00;;;;;;;;;;7370701;19;20013;-71
2023/07/31 09:18:09;;;;;;;7.82;2.60;;;;;;;;;;7370996;19;20006;-71
2023/07/31 09:20:35;;;;;;;6.68;2.42;;;;;;;;;;7371139;19;20006;-71
2023/07/31 09:23:12;;;;;;;6.78;2.50;;;;;;;;;;7371642;19;20085;-71
2023/07/31 09:25:39;;;;;;;4.70;2.42;;;;;;;;;;7393243;19;20776;-71
2023/07/31 09:28:07;;;;;;;7.38;2.83;;;;;;;;;;7371331;19;20027;-71
2023/07/31 09:30:52;;;;;;;6.43;2.40;;;;;;;;;;7370992;19;19998;-70
2023/07/31 09:33:19;;;;;;;8.82;2.97;;;;;;;;;;7370306;19;20078;-72
2023/07/31 09:35:45;;;;;;;9.45;2.60;;;;;;;;;;7369580;19;20023;-70
2023/07/31 09:38:12;;;;;;;7.72;2.47;;;;;;;;;;7368977;19;20005;-71
2023/07/31 09:40:40;;;;;;;6.35;2.60;;;;;;;;;;7391514;19;20010;-71
2023/07/31 09:43:07;;;;;;;7.32;2.60;;;;;;;;;;7369210;19;20022;-72
2023/07/31 09:45:38;;;;;;;7.32;2.50;;;;;;;;;;7370375;19;20682;-72
2023/07/31 09:48:08;;;;;;;6.97;2.33;;;;;;;;;;7369775;19;20736;-72
2023/07/31 09:50:35;;;;;;;8.15;2.65;;;;;;;;;;7370103;19;20031;-73
2023/07/31 09:53:01;;;;;;;9.30;2.63;;;;;;;;;;7369687;19;20066;-73
2023/07/31 09:55:27;;;;;;;8.98;2.70;;;;;;;;;;7388900;19;20524;-72
2023/07/31 09:57:55;;;;;;;6.53;2.72;;;;;;;;;;7369122;19;20085;-72
2023/07/31 10:00:22;;;;;;;7.72;2.53;;;;;;;;;;7369186;19;20013;-73
2023/07/31 10:02:48;;;;;;;7.85;2.72;;;;;;;;;;7369627;19;20002;-72
2023/07/31 10:05:17;;;;;;;6.80;2.65;;;;;;;;;;7369261;19;19998;-72
2023/07/31 10:07:52;;;;;;;6.63;2.67;;;;;;;;;;7391068;19;20012;-71
2023/07/31 10:10:20;;;;;;;7.43;2.80;;;;;;;;;;7367715;19;20066;-72
2023/07/31 10:12:47;;;;;;;5.82;2.60;;;;;;;;;;7367656;19;20002;-72
2023/07/31 10:15:14;;;;;;;8.27;3.15;;;;;;;;;;7365069;19;19998;-72
2023/07/31 10:17:40;;;;;;;5.65;2.35;;;;;;;;;;7365628;19;20002;-72
2023/07/31 10:20:09;;;;;;;7.25;2.67;;;;;;;;;;7364883;19;20018;-71
2023/07/31 10:22:35;;;;;;;7.20;2.95;;;;;;;;;;7387425;19;20539;-72
2023/07/31 10:25:01;;;;;;;7.30;2.80;;;;;;;;;;7363758;19;20014;-71
2023/07/31 10:27:27;;;;;;;6.07;2.83;;;;;;;;;;7367161;19;20021;-72
2023/07/31 10:29:55;;;;;;;12.02;3.10;;;;;;;;;;7370158;19;20512;-72
2023/07/31 10:32:21;;;;;;;9.60;2.63;;;;;;;;;;7370932;19;20000;-71
2023/07/31 10:34:48;;;;;;;7.88;2.85;;;;;;;;;;7388392;19;20477;-72
2023/07/31 10:37:35;;;;;;;5.97;2.60;;;;;;;;;;7367283;19;20032;-72
2023/07/31 10:40:19;;;;;;;7.15;3.00;;;;;;;;;;7368733;19;20003;-71
2023/07/31 10:42:54;;;;;;;8.48;2.97;;;;;;;;;;7368742;19;20013;-71
2023/07/31 10:45:28;;;;;;;8.00;3.13;;;;;;;;;;7368974;19;20014;-71
2023/07/31 10:48:00;;;;;;;9.38;2.55;;;;;;;;;;7372732;19;20002;-71
2023/07/31 10:50:26;;;;;;;5.97;2.80;;;;;;;;;;7371243;19;20552;-71
2023/07/31 10:52:57;;;;;;;7.90;2.90;;;;;;;;;;7391800;19;19999;-72
2023/07/31 10:55:30;;;;;;;9.07;2.75;;;;;;;;;;7368258;19;20100;-71
2023/07/31 10:58:04;;;;;;;8.20;2.92;;;;;;;;;;7368712;19;20033;-72
2023/07/31 11:00:29;;;;;;;9.27;2.90;;;;;;;;;;7370141;19;20014;-71
2023/07/31 11:03:01;;;;;;;8.30;3.85;;;;;;;;;;7370771;19;20005;-71
2023/07/31 11:05:45;;;;;;;6.80;2.90;;;;;;;;;;7366084;19;20072;-72
2023/07/31 11:08:24;;;;;;;7.60;2.40;;;;;;;;;;7370385;19;20814;-70
2023/07/31 11:11:04;;;;;;;6.95;2.72;;;;;;;;;;7392298;19;20032;-70
2023/07/31 11:13:29;;;;;;;7.70;2.88;;;;;;;;;;7366808;19;20041;-70
2023/07/31 11:15:54;;;;;;;7.47;2.60;;;;;;;;;;7367264;19;20586;-70
2023/07/31 11:18:20;;;;;;;8.57;3.15;;;;;;;;;;7370408;19;20254;-70
2023/07/31 11:20:45;;;;;;;11.85;2.85;;;;;;;;;;7369705;19;20021;-71
2023/07/31 11:23:11;;;;;;;10.32;3.00;;;;;;;;;;7366742;19;20018;-70
2023/07/31 11:25:41;;;;;;;5.28;2.22;;;;;;;;;;7387220;19;20338;-70
2023/07/31 11:28:08;;;;;;;6.82;2.97;;;;;;;;;;7365603;19;20374;-70
2023/07/31 11:30:34;;;;;;;6.18;3.00;;;;;;;;;;7366675;19;20013;-66
2023/07/31 11:33:03;;;;;;;6.68;2.88;;;;;;;;;;7367829;19;20006;-64
2023/07/31 11:35:29;;;;;;;7.25;2.70;;;;;;;;;;7365491;19;20082;-67
2023/07/31 11:37:55;;;;;;;8.00;2.67;;;;;;;;;;7389868;19;20006;-65
2023/07/31 11:40:20;;;;;;;5.70;2.67;;;;;;;;;;7370493;19;20006;-64
2023/07/31 11:42:45;;;;;;;7.82;2.75;;;;;;;;;;7369631;19;20027;-64
2023/07/31 11:45:11;;;;;;;7.32;2.75;;;;;;;;;;7366048;19;20029;-71
2023/07/31 11:47:37;;;;;;;7.68;2.85;;;;;;;;;;7366762;19;20021;-71
2023/07/31 11:50:05;;;;;;;5.47;2.60;;;;;;;;;;7364003;19;20422;-71
2023/07/31 11:52:33;;;;;;;12.40;2.70;;;;;;;;;;7385884;19;20002;-70
2023/07/31 11:54:59;;;;;;;8.55;3.30;;;;;;;;;;7365045;19;20014;-71
2023/07/31 11:57:26;;;;;;;10.52;2.72;;;;;;;;;;7365754;19;20027;-70
2023/07/31 11:59:52;;;;;;;7.68;2.78;;;;;;;;;;7368205;19;20029;-70
2023/07/31 12:02:18;;;;;;;7.80;2.80;;;;;;;;;;7366841;19;20460;-72
2023/07/31 12:04:45;;;;;;;8.85;2.67;;;;;;;;;;7391349;19;20006;-71
2023/07/31 12:07:12;;;;;;;8.55;2.78;;;;;;;;;;7373263;19;20054;-71
2023/07/31 12:09:37;;;;;;;6.90;3.08;;;;;;;;;;7372251;19;20010;-71
2023/07/31 12:12:08;;;;;;;7.30;2.90;;;;;;;;;;7372887;19;19998;-72
2023/07/31 12:14:34;;;;;;;5.03;2.53;;;;;;;;;;7371372;19;20010;-72
2023/07/31 12:17:03;;;;;;;7.00;2.78;;;;;;;;;;7387116;19;20013;-71
2023/07/31 12:19:30;;;;;;;7.75;2.80;;;;;;;;;;7394027;19;20005;-72
2023/07/31 12:22:00;;;;;;;12.15;2.90;;;;;;;;;;7372127;19;20035;-72
2023/07/31 12:24:27;;;;;;;7.85;2.60;;;;;;;;;;7370676;19;20006;-72
2023/07/31 12:26:52;;;;;;;7.18;3.05;;;;;;;;;;7373319;19;20377;-72
2023/07/31 12:29:18;;;;;;;7.38;2.80;;;;;;;;;;7373165;19;19999;-72
2023/07/31 12:31:44;;;;;;;9.27;2.85;;;;;;;;;;7393173;19;20006;-71
2023/07/31 12:34:20;;;;;;;7.28;3.00;;;;;;;;;;7371580;19;20006;-71
2023/07/31 12:36:48;;;;;;;5.93;2.75;;;;;;;;;;7373063;19;20007;-70
2023/07/31 12:39:14;;;;;;;7.25;3.00;;;;;;;;;;7373827;19;20002;-72
2023/07/31 12:41:40;;;;;;;5.03;2.50;;;;;;;;;;7372929;19;20094;-72
2023/07/31 12:44:05;;;;;;;6.35;2.80;;;;;;;;;;7371694;19;20024;-72
2023/07/31 12:46:30;;;;;;;8.73;2.90;;;;;;;;;;7393692;19;20009;-72
2023/07/31 12:48:56;;;;;;;4.80;2.47;;;;;;;;;;7371876;19;20111;-72
2023/07/31 12:51:21;;;;;;;5.45;2.85;;;;;;;;;;7371314;19;20009;-72
2023/07/31 12:53:46;;;;;;;8.77;2.72;;;;;;;;;;7369810;19;20006;-72
2023/07/31 12:56:12;;;;;;;7.05;2.90;;;;;;;;;;7371951;19;20065;-72
2023/07/31 12:58:37;;;;;;;5.68;2.60;;;;;;;;;;7391376;19;20002;-71
2023/07/31 13:01:02;;;;;;;5.72;2.60;;;;;;;;;;7366148;19;20010;-71
2023/07/31 13:03:28;;;;;;;5.72;2.63;;;;;;;;;;7370053;19;20022;-71
2023/07/31 13:05:53;;;;;;;5.28;2.30;;;;;;;;;;7371892;19;20014;-70
2023/07/31 13:08:19;;;;;;;6.72;2.88;;;;;;;;;;7371681;19;20160;-70
2023/07/31 13:10:44;;;;;;;5.97;2.47;;;;;;;;;;7392260;19;20027;-72
2023/07/31 13:13:10;;;;;;;6.10;2.88;;;;;;;;;;7370340;19;20010;-71
2023/07/31 13:15:35;;;;;;;8.30;2.85;;;;;;;;;;7369322;19;20099;-72
2023/07/31 13:18:01;;;;;;;5.68;2.30;;;;;;;;;;7372912;19;20002;-72
2023/07/31 13:20:26;;;;;;;6.03;2.67;;;;;;;;;;7372392;19;20472;-72
2023/07/31 13:22:51;;;;;;;5.63;2.40;;;;;;;;;;7392989;19;19995;-71
2023/07/31 13:25:17;;;;;;;9.15;2.80;;;;;;;;;;7367775;19;20489;-71
2023/07/31 13:27:42;;;;;;;6.35;2.75;;;;;;;;;;7370193;19;20014;-70
2023/07/31 13:30:08;;;;;;;6.03;2.50;;;;;;;;;;7371246;19;20032;-71
2023/07/31 13:32:34;;;;;;;5.35;2.40;;;;;;;;;;7370362;19;20007;-70
2023/07/31 13:34:59;;;;;;;5.63;2.50;;;;;;;;;;7384703;19;20476;-72
2023/07/31 13:37:24;;;;;;;7.38;2.60;;;;;;;;;;7375756;19;20397;-71
2023/07/31 13:39:50;;;;;;;7.88;2.60;;;;;;;;;;7369789;19;20081;-71
2023/07/31 13:42:15;;;;;;;6.00;2.65;;;;;;;;;;7371191;19;20031;-71
2023/07/31 13:44:42;;;;;;;7.18;2.80;;;;;;;;;;7369423;19;20010;-72
2023/07/31 13:47:09;;;;;;;5.95;2.40;;;;;;;;;;7371355;19;19998;-71
2023/07/31 13:49:35;;;;;;;6.03;2.63;;;;;;;;;;7392765;19;19999;-71
2023/07/31 13:52:01;;;;;;;7.95;3.05;;;;;;;;;;7369922;19;20002;-72
2023/07/31 13:54:26;;;;;;;8.07;2.70;;;;;;;;;;7370152;19;20016;-72
2023/07/31 13:56:52;;;;;;;9.18;2.67;;;;;;;;;;7372302;19;20071;-72
2023/07/31 13:59:18;;;;;;;7.75;3.00;;;;;;;;;;7369823;19;20456;-73
2023/07/31 14:01:43;;;;;;;4.57;2.58;;;;;;;;;;7391032;19;20023;-72
2023/07/31 14:04:09;;;;;;;6.05;2.80;;;;;;;;;;7367595;19;20002;-72
2023/07/31 14:06:34;;;;;;;7.90;2.70;;;;;;;;;;7369592;19;20447;-71
2023/07/31 14:09:00;;;;;;;6.75;2.72;;;;;;;;;;7369724;19;20006;-71
2023/07/31 14:11:26;;;;;;;10.35;2.85;;;;;;;;;;7367226;19;20015;-71
2023/07/31 14:13:51;;;;;;;9.18;3.15;;;;;;;;;;7389091;19;20353;-72
2023/07/31 14:16:17;;;;;;;9.68;2.47;;;;;;;;;;7367774;19;20067;-72
2023/07/31 14:18:42;;;;;;;7.15;3.00;;;;;;;;;;7366928;19;20511;-72
2023/07/31 14:21:08;;;;;;;5.97;2.80;;;;;;;;;;7367483;19;20022;-72
2023/07/31 14:23:34;;;;;;;7.00;2.50;;;;;;;;;;7366188;19;20027;-72
2023/07/31 14:26:00;;;;;;;6.57;2.80;;;;;;;;;;7377259;19;20045;-71
2023/07/31 14:28:25;;;;;;;5.80;2.22;;;;;;;;;;7381656;19;20102;-70
2023/07/31 14:30:50;;;;;;;8.40;3.03;;;;;;;;;;7366978;19;20367;-73
2023/07/31 14:33:16;;;;;;;5.60;2.67;;;;;;;;;;7368370;19;20006;-72
2023/07/31 14:35:41;;;;;;;7.97;2.65;;;;;;;;;;7368264;19;20070;-72
2023/07/31 14:38:06;;;;;;;6.55;2.33;;;;;;;;;;7367866;19;19995;-72